Old Forge, NY (13420)

3:25 PM EDT on July 25, 2014 (GMT -0400)
Information Center (KNYOLDFO2) Elev 1713 ft | 43.71 °N, 74.97 °W | Change Station

Current weather conditions updated 3 minutes ago

Partly Cloudy
Partly Cloudy
69.0 °F
Feels Like 69.0 °F
N
0.0
Wind Variable Wind from SW
Gusts 0.0 mph

Today is forecast to be Warmer than yesterday. Cloudy with late night rain tomorrow night.

Today
High -- | Low -- °F
--% Chance of Precip.
Yesterday
High -- | Low -- °F
Precip. -- in
5:41 AM 8:30 PM
Waning Crescent, 1% visible
Pressure 30.01 in
Visibility 10.0 miles
Clouds Clear
Dew Point 69 °F
Humidity 100%
Rainfall -999.00 in
Snow Depth Not available.
UV 9 out of 12
Pollen 6.10 out of 12
Ozone Good
Flu Activity Not available.
METAR KRME 251853Z 25009G15KT 220V300 10SM CLR 23/12 A3001 RMK AO2 SLP160 T02330117

More Conditions Fewer Conditions

Pressure 30.01 in
Visibility 10.0 miles
Clouds Clear
Dew Point 69 °F
Humidity 100%
Rainfall -999.00 in
Snow Depth Not available.
UV 9 out of 12
Pollen 6.10 out of 12
Ozone Good
Flu Activity Not available.
METAR KRME 251853Z 25009G15KT 220V300 10SM CLR 23/12 A3001 RMK AO2 SLP160 T02330117

More Conditions Fewer Conditions

10-Day Weather Forecast

Almanac

Astronomy

Jul. 25, 2014 Rise Set
Actual Time 5:41 AM EDT 8:30 PM EDT
Civil Twilight 5:07 AM EDT 9:04 PM EDT
Nautical Twilight 4:24 AM EDT 9:46 PM EDT
Astronomical Twilight 3:35 AM EDT 10:35 PM EDT
Moon 4:39 AM EDT 7:24 PM EDT
Length of Visible Light 15h 56m
Length of Day
14h 49m
Tomorrow will be 2m 4s shorter.
Waning Crescent, 1% of the Moon is Illuminated
Today
Waning Crescent
Jul 26
New
Aug 3
First Quarter
Aug 10
Full
Aug 17
Last Quarter

Today's Extremes

State Highs State Lows

Community

WunderPhotos

Upload Photos

1,737,384 photos uploaded!

Nearby

Air Quality

  Air Quality AQ Index Pollutant
Yesterday Good
OZONE
Current Good
OZONE
Friday Good
PM2.5
Friday Good
OZONE
Saturday Good
OZONE
Saturday Good
PM2.5
Sunday Good
OZONE
Sunday Good
PM2.5
Monday Good
OZONE
Monday Good
PM2.5

Snow Depth

Station Depth Elevation
No new snow has been reported.

Earthquake Activity

City Distance Mag. Time & Date
No recent earthquake activity has been reported nearby.
Minimum magnitude displayed is 2.5.

Coastal Water Temperatures

Place Temperature
No Stations Reporting

Nearby Weather Stations

Station Location Temp. Heat Index Dew Point Humidity Wind Precip. Elev Updated Type
Information Center, Old Forge, NY 69.0 °F - 69 °F 100% SW  at  0.0 mph 0.00 in / hr 1713 ft 3:21 PM EDT Normal
Thirsty Pond, Eagle Bay, NY 69.3 °F - 52 °F 55% South  at  3.0 mph 0.00 in / hr 2126 ft 3:14 PM EDT Normal
Matts Draft House, Inlet, NY 71.6 °F 76 °F 55 °F 56% West  at  5.8 mph 0.00 in / hr 1775 ft 3:25 PM EDT Rapid Fire
Red Pond Lane, Boonville, NY 74.4 °F 77 °F 58 °F 56% SSW  at  1.0 mph 0.00 in / hr 1148 ft 3:25 PM EDT Rapid Fire

Show More Stations Show Fewer Stations